sensor_id;sensor_type;location;lat;lon;timestamp;pressure;altitude;pressure_sealevel;temperature
38114;BMP180;23926;53.222;6.354;2023-03-11T00:00:41;100226.00;;;2.90
38114;BMP180;23926;53.222;6.354;2023-03-11T00:03:08;100226.00;;;2.90
38114;BMP180;23926;53.222;6.354;2023-03-11T00:05:36;100229.00;;;2.90
38114;BMP180;23926;53.222;6.354;2023-03-11T00:08:03;100233.00;;;2.80
38114;BMP180;23926;53.222;6.354;2023-03-11T00:10:31;100246.00;;;3.00
38114;BMP180;23926;53.222;6.354;2023-03-11T00:12:58;100246.00;;;2.90
38114;BMP180;23926;53.222;6.354;2023-03-11T00:15:24;100254.00;;;2.90
38114;BMP180;23926;53.222;6.354;2023-03-11T00:17:50;100263.00;;;2.90
38114;BMP180;23926;53.222;6.354;2023-03-11T00:20:25;100260.00;;;2.90
38114;BMP180;23926;53.222;6.354;2023-03-11T00:22:52;100262.00;;;2.90
38114;BMP180;23926;53.222;6.354;2023-03-11T00:25:19;100267.00;;;2.90
38114;BMP180;23926;53.222;6.354;2023-03-11T00:27:45;100264.00;;;2.90
38114;BMP180;23926;53.222;6.354;2023-03-11T00:30:11;100265.00;;;2.70
38114;BMP180;23926;53.222;6.354;2023-03-11T00:32:37;100280.00;;;2.80
38114;BMP180;23926;53.222;6.354;2023-03-11T00:35:03;100284.00;;;2.80
38114;BMP180;23926;53.222;6.354;2023-03-11T00:37:29;100284.00;;;2.80
38114;BMP180;23926;53.222;6.354;2023-03-11T00:39:54;100285.00;;;2.80
38114;BMP180;23926;53.222;6.354;2023-03-11T00:42:20;100280.00;;;2.80
38114;BMP180;23926;53.222;6.354;2023-03-11T00:44:45;100289.00;;;2.80
38114;BMP180;23926;53.222;6.354;2023-03-11T00:47:11;100307.00;;;2.70
38114;BMP180;23926;53.222;6.354;2023-03-11T00:49:38;100294.00;;;2.70
38114;BMP180;23926;53.222;6.354;2023-03-11T00:52:12;100299.00;;;2.80
38114;BMP180;23926;53.222;6.354;2023-03-11T00:54:44;100307.00;;;2.70
38114;BMP180;23926;53.222;6.354;2023-03-11T00:57:25;100314.00;;;2.80
38114;BMP180;23926;53.222;6.354;2023-03-11T00:59:54;100301.00;;;2.90
38114;BMP180;23926;53.222;6.354;2023-03-11T01:02:20;100313.00;;;2.90
38114;BMP180;23926;53.222;6.354;2023-03-11T01:04:46;100311.00;;;2.80
38114;BMP180;23926;53.222;6.354;2023-03-11T01:07:12;100305.00;;;2.80
38114;BMP180;23926;53.222;6.354;2023-03-11T01:09:38;100322.00;;;2.70
38114;BMP180;23926;53.222;6.354;2023-03-11T01:12:03;100313.00;;;2.80
38114;BMP180;23926;53.222;6.354;2023-03-11T01:14:29;100335.00;;;2.80
38114;BMP180;23926;53.222;6.354;2023-03-11T01:16:54;100321.00;;;2.90
38114;BMP180;23926;53.222;6.354;2023-03-11T01:19:21;100335.00;;;2.80
38114;BMP180;23926;53.222;6.354;2023-03-11T01:21:46;100340.00;;;2.80
38114;BMP180;23926;53.222;6.354;2023-03-11T01:24:12;100338.00;;;2.80
38114;BMP180;23926;53.222;6.354;2023-03-11T01:26:37;100338.00;;;2.80
38114;BMP180;23926;53.222;6.354;2023-03-11T01:29:03;100346.00;;;2.80
38114;BMP180;23926;53.222;6.354;2023-03-11T01:31:28;100342.00;;;2.90
38114;BMP180;23926;53.222;6.354;2023-03-11T01:33:53;100343.00;;;2.90
38114;BMP180;23926;53.222;6.354;2023-03-11T01:36:19;100353.00;;;2.80
38114;BMP180;23926;53.222;6.354;2023-03-11T01:38:44;100359.00;;;2.70
38114;BMP180;23926;53.222;6.354;2023-03-11T01:41:11;100358.00;;;2.70
38114;BMP180;23926;53.222;6.354;2023-03-11T01:43:45;100363.00;;;2.90
38114;BMP180;23926;53.222;6.354;2023-03-11T01:46:25;100355.00;;;2.80
38114;BMP180;23926;53.222;6.354;2023-03-11T01:48:56;100371.00;;;2.80
38114;BMP180;23926;53.222;6.354;2023-03-11T01:51:38;100364.00;;;2.70
38114;BMP180;23926;53.222;6.354;2023-03-11T01:54:08;100374.00;;;2.70
38114;BMP180;23926;53.222;6.354;2023-03-11T01:56:38;100378.00;;;2.60
38114;BMP180;23926;53.222;6.354;2023-03-11T01:59:05;100371.00;;;2.70
38114;BMP180;23926;53.222;6.354;2023-03-11T02:01:32;100381.00;;;2.40
38114;BMP180;23926;53.222;6.354;2023-03-11T02:04:02;100376.00;;;2.40
38114;BMP180;23926;53.222;6.354;2023-03-11T02:06:30;100382.00;;;2.40
38114;BMP180;23926;53.222;6.354;2023-03-11T02:08:56;100367.00;;;2.50
38114;BMP180;23926;53.222;6.354;2023-03-11T02:11:24;100386.00;;;2.40
38114;BMP180;23926;53.222;6.354;2023-03-11T02:13:53;100380.00;;;2.50
38114;BMP180;23926;53.222;6.354;2023-03-11T02:16:21;100383.00;;;2.50
38114;BMP180;23926;53.222;6.354;2023-03-11T02:18:46;100370.00;;;2.40
38114;BMP180;23926;53.222;6.354;2023-03-11T02:21:25;100387.00;;;2.50
38114;BMP180;23926;53.222;6.354;2023-03-11T02:27:02;100378.00;;;2.50
38114;BMP180;23926;53.222;6.354;2023-03-11T02:29:31;100380.00;;;2.50
38114;BMP180;23926;53.222;6.354;2023-03-11T02:31:58;100387.00;;;2.50
38114;BMP180;23926;53.222;6.354;2023-03-11T02:34:31;100390.00;;;2.60
38114;BMP180;23926;53.222;6.354;2023-03-11T02:36:58;100392.00;;;2.60
38114;BMP180;23926;53.222;6.354;2023-03-11T02:39:35;100397.00;;;2.60
38114;BMP180;23926;53.222;6.354;2023-03-11T02:42:04;100378.00;;;2.60
38114;BMP180;23926;53.222;6.354;2023-03-11T02:44:31;100386.00;;;2.60
38114;BMP180;23926;53.222;6.354;2023-03-11T02:46:58;100391.00;;;2.60
38114;BMP180;23926;53.222;6.354;2023-03-11T02:49:24;100399.00;;;2.50
38114;BMP180;23926;53.222;6.354;2023-03-11T02:51:50;100393.00;;;2.50
38114;BMP180;23926;53.222;6.354;2023-03-11T02:54:16;100404.00;;;2.30
38114;BMP180;23926;53.222;6.354;2023-03-11T02:56:42;100395.00;;;2.20
38114;BMP180;23926;53.222;6.354;2023-03-11T02:59:07;100390.00;;;2.20
38114;BMP180;23926;53.222;6.354;2023-03-11T03:01:33;100396.00;;;2.10
38114;BMP180;23926;53.222;6.354;2023-03-11T03:03:58;100395.00;;;2.10
38114;BMP180;23926;53.222;6.354;2023-03-11T03:06:23;100390.00;;;2.10
38114;BMP180;23926;53.222;6.354;2023-03-11T03:08:49;100389.00;;;2.00
38114;BMP180;23926;53.222;6.354;2023-03-11T03:11:15;100391.00;;;2.00
38114;BMP180;23926;53.222;6.354;2023-03-11T03:13:40;100411.00;;;1.90
38114;BMP180;23926;53.222;6.354;2023-03-11T03:16:06;100399.00;;;1.80
38114;BMP180;23926;53.222;6.354;2023-03-11T03:18:32;100402.00;;;1.80
38114;BMP180;23926;53.222;6.354;2023-03-11T03:20:57;100403.00;;;1.70
38114;BMP180;23926;53.222;6.354;2023-03-11T03:23:23;100410.00;;;1.70
38114;BMP180;23926;53.222;6.354;2023-03-11T03:25:48;100414.00;;;1.70
38114;BMP180;23926;53.222;6.354;2023-03-11T03:28:14;100410.00;;;1.70
38114;BMP180;23926;53.222;6.354;2023-03-11T03:30:40;100402.00;;;1.70
38114;BMP180;23926;53.222;6.354;2023-03-11T03:33:06;100417.00;;;1.60
38114;BMP180;23926;53.222;6.354;2023-03-11T03:35:32;100425.00;;;1.50
38114;BMP180;23926;53.222;6.354;2023-03-11T03:37:58;100407.00;;;1.60
38114;BMP180;23926;53.222;6.354;2023-03-11T03:40:24;100422.00;;;1.50
38114;BMP180;23926;53.222;6.354;2023-03-11T03:42:50;100424.00;;;1.40
38114;BMP180;23926;53.222;6.354;2023-03-11T03:45:15;100430.00;;;1.40
38114;BMP180;23926;53.222;6.354;2023-03-11T03:47:41;100427.00;;;1.40
38114;BMP180;23926;53.222;6.354;2023-03-11T03:50:09;100443.00;;;1.40
38114;BMP180;23926;53.222;6.354;2023-03-11T03:52:36;100445.00;;;1.40
38114;BMP180;23926;53.222;6.354;2023-03-11T03:55:03;100451.00;;;1.30
38114;BMP180;23926;53.222;6.354;2023-03-11T03:57:29;100450.00;;;1.30
38114;BMP180;23926;53.222;6.354;2023-03-11T03:59:54;100460.00;;;1.40
38114;BMP180;23926;53.222;6.354;2023-03-11T04:02:20;100457.00;;;1.40
38114;BMP180;23926;53.222;6.354;2023-03-11T04:04:46;100455.00;;;1.40
38114;BMP180;23926;53.222;6.354;2023-03-11T04:07:13;100476.00;;;1.40
38114;BMP180;23926;53.222;6.354;2023-03-11T04:09:41;100454.00;;;1.30
38114;BMP180;23926;53.222;6.354;2023-03-11T04:12:12;100471.00;;;1.20
38114;BMP180;23926;53.222;6.354;2023-03-11T04:14:40;100473.00;;;1.10
38114;BMP180;23926;53.222;6.354;2023-03-11T04:17:10;100469.00;;;1.00
38114;BMP180;23926;53.222;6.354;2023-03-11T04:19:36;100476.00;;;0.90
38114;BMP180;23926;53.222;6.354;2023-03-11T04:22:02;100486.00;;;0.80
38114;BMP180;23926;53.222;6.354;2023-03-11T04:24:27;100496.00;;;0.80
38114;BMP180;23926;53.222;6.354;2023-03-11T04:26:52;100478.00;;;0.60
38114;BMP180;23926;53.222;6.354;2023-03-11T04:29:18;100483.00;;;0.60
38114;BMP180;23926;53.222;6.354;2023-03-11T04:31:43;100491.00;;;0.60
38114;BMP180;23926;53.222;6.354;2023-03-11T04:34:09;100497.00;;;0.50
38114;BMP180;23926;53.222;6.354;2023-03-11T04:36:34;100483.00;;;0.40
38114;BMP180;23926;53.222;6.354;2023-03-11T04:38:59;100490.00;;;0.50
38114;BMP180;23926;53.222;6.354;2023-03-11T04:41:25;100484.00;;;0.40
38114;BMP180;23926;53.222;6.354;2023-03-11T04:43:50;100487.00;;;0.40
38114;BMP180;23926;53.222;6.354;2023-03-11T04:46:16;100495.00;;;0.40
38114;BMP180;23926;53.222;6.354;2023-03-11T04:48:41;100482.00;;;0.30
38114;BMP180;23926;53.222;6.354;2023-03-11T04:51:07;100494.00;;;0.30
38114;BMP180;23926;53.222;6.354;2023-03-11T04:53:32;100498.00;;;0.30
38114;BMP180;23926;53.222;6.354;2023-03-11T04:55:58;100485.00;;;0.30
38114;BMP180;23926;53.222;6.354;2023-03-11T04:58:23;100498.00;;;0.30
38114;BMP180;23926;53.222;6.354;2023-03-11T05:00:49;100508.00;;;0.30
38114;BMP180;23926;53.222;6.354;2023-03-11T05:03:15;100501.00;;;0.30
38114;BMP180;23926;53.222;6.354;2023-03-11T05:05:43;100510.00;;;0.30
38114;BMP180;23926;53.222;6.354;2023-03-11T05:08:08;100503.00;;;0.30
38114;BMP180;23926;53.222;6.354;2023-03-11T05:10:34;100514.00;;;0.30
38114;BMP180;23926;53.222;6.354;2023-03-11T05:13:01;100520.00;;;0.30
38114;BMP180;23926;53.222;6.354;2023-03-11T05:15:26;100500.00;;;0.30
38114;BMP180;23926;53.222;6.354;2023-03-11T05:17:53;100509.00;;;0.30
38114;BMP180;23926;53.222;6.354;2023-03-11T05:20:18;100503.00;;;0.30
38114;BMP180;23926;53.222;6.354;2023-03-11T05:22:44;100514.00;;;0.40
38114;BMP180;23926;53.222;6.354;2023-03-11T05:25:09;100523.00;;;0.40
38114;BMP180;23926;53.222;6.354;2023-03-11T05:27:35;100521.00;;;0.40
38114;BMP180;23926;53.222;6.354;2023-03-11T05:30:00;100517.00;;;0.30
38114;BMP180;23926;53.222;6.354;2023-03-11T05:32:25;100528.00;;;0.30
38114;BMP180;23926;53.222;6.354;2023-03-11T05:34:51;100527.00;;;0.30
38114;BMP180;23926;53.222;6.354;2023-03-11T05:37:17;100534.00;;;0.30
38114;BMP180;23926;53.222;6.354;2023-03-11T05:39:42;100536.00;;;0.30
38114;BMP180;23926;53.222;6.354;2023-03-11T05:42:07;100533.00;;;0.30
38114;BMP180;23926;53.222;6.354;2023-03-11T05:44:33;100532.00;;;0.40
38114;BMP180;23926;53.222;6.354;2023-03-11T05:46:59;100547.00;;;0.30
38114;BMP180;23926;53.222;6.354;2023-03-11T05:49:25;100546.00;;;0.40
38114;BMP180;23926;53.222;6.354;2023-03-11T05:51:50;100541.00;;;0.30
38114;BMP180;23926;53.222;6.354;2023-03-11T05:54:16;100547.00;;;0.30
38114;BMP180;23926;53.222;6.354;2023-03-11T05:56:43;100552.00;;;0.30
38114;BMP180;23926;53.222;6.354;2023-03-11T05:59:09;100552.00;;;0.30
38114;BMP180;23926;53.222;6.354;2023-03-11T06:01:35;100555.00;;;0.30
38114;BMP180;23926;53.222;6.354;2023-03-11T06:04:01;100552.00;;;0.20
38114;BMP180;23926;53.222;6.354;2023-03-11T06:06:27;100546.00;;;0.30
38114;BMP180;23926;53.222;6.354;2023-03-11T06:08:53;100561.00;;;0.30
38114;BMP180;23926;53.222;6.354;2023-03-11T06:11:19;100548.00;;;0.20
38114;BMP180;23926;53.222;6.354;2023-03-11T06:13:44;100573.00;;;0.20
38114;BMP180;23926;53.222;6.354;2023-03-11T06:16:10;100561.00;;;0.20
38114;BMP180;23926;53.222;6.354;2023-03-11T06:18:36;100568.00;;;0.30
38114;BMP180;23926;53.222;6.354;2023-03-11T06:21:02;100567.00;;;0.20
38114;BMP180;23926;53.222;6.354;2023-03-11T06:23:28;100578.00;;;0.20
38114;BMP180;23926;53.222;6.354;2023-03-11T06:25:59;100583.00;;;0.30
38114;BMP180;23926;53.222;6.354;2023-03-11T06:28:26;100590.00;;;0.30
38114;BMP180;23926;53.222;6.354;2023-03-11T06:30:53;100588.00;;;0.40
38114;BMP180;23926;53.222;6.354;2023-03-11T06:33:24;100600.00;;;0.40
38114;BMP180;23926;53.222;6.354;2023-03-11T06:36:00;100590.00;;;0.40
38114;BMP180;23926;53.222;6.354;2023-03-11T06:38:26;100607.00;;;0.50
38114;BMP180;23926;53.222;6.354;2023-03-11T06:40:52;100610.00;;;0.50
38114;BMP180;23926;53.222;6.354;2023-03-11T06:43:18;100603.00;;;0.60
38114;BMP180;23926;53.222;6.354;2023-03-11T06:45:44;100613.00;;;0.60
38114;BMP180;23926;53.222;6.354;2023-03-11T06:48:10;100608.00;;;0.70
38114;BMP180;23926;53.222;6.354;2023-03-11T06:50:35;100612.00;;;0.60
38114;BMP180;23926;53.222;6.354;2023-03-11T06:53:01;100629.00;;;0.80
38114;BMP180;23926;53.222;6.354;2023-03-11T06:55:27;100626.00;;;0.80
38114;BMP180;23926;53.222;6.354;2023-03-11T06:57:53;100641.00;;;0.80
38114;BMP180;23926;53.222;6.354;2023-03-11T07:00:18;100634.00;;;0.90
38114;BMP180;23926;53.222;6.354;2023-03-11T07:02:44;100639.00;;;1.00
38114;BMP180;23926;53.222;6.354;2023-03-11T07:05:09;100649.00;;;1.00
38114;BMP180;23926;53.222;6.354;2023-03-11T07:07:34;100643.00;;;1.10
38114;BMP180;23926;53.222;6.354;2023-03-11T07:10:00;100653.00;;;1.20
38114;BMP180;23926;53.222;6.354;2023-03-11T07:12:25;100645.00;;;1.20
38114;BMP180;23926;53.222;6.354;2023-03-11T07:14:58;100652.00;;;1.30
38114;BMP180;23926;53.222;6.354;2023-03-11T07:17:24;100664.00;;;1.30
38114;BMP180;23926;53.222;6.354;2023-03-11T07:19:49;100656.00;;;1.50
38114;BMP180;23926;53.222;6.354;2023-03-11T07:22:15;100663.00;;;1.60
38114;BMP180;23926;53.222;6.354;2023-03-11T07:24:44;100659.00;;;1.60
38114;BMP180;23926;53.222;6.354;2023-03-11T07:27:09;100663.00;;;1.60
38114;BMP180;23926;53.222;6.354;2023-03-11T07:29:35;100669.00;;;1.70
38114;BMP180;23926;53.222;6.354;2023-03-11T07:32:01;100683.00;;;1.70
38114;BMP180;23926;53.222;6.354;2023-03-11T07:34:26;100677.00;;;1.80
38114;BMP180;23926;53.222;6.354;2023-03-11T07:36:53;100694.00;;;1.90
38114;BMP180;23926;53.222;6.354;2023-03-11T07:39:18;100694.00;;;1.90
38114;BMP180;23926;53.222;6.354;2023-03-11T07:41:44;100695.00;;;2.00
38114;BMP180;23926;53.222;6.354;2023-03-11T07:44:12;100696.00;;;2.10
38114;BMP180;23926;53.222;6.354;2023-03-11T07:46:38;100693.00;;;2.10
38114;BMP180;23926;53.222;6.354;2023-03-11T07:49:04;100699.00;;;2.20
38114;BMP180;23926;53.222;6.354;2023-03-11T07:51:32;100694.00;;;2.30
38114;BMP180;23926;53.222;6.354;2023-03-11T07:53:58;100713.00;;;2.30
38114;BMP180;23926;53.222;6.354;2023-03-11T07:56:26;100710.00;;;2.40
38114;BMP180;23926;53.222;6.354;2023-03-11T07:58:52;100712.00;;;2.40
38114;BMP180;23926;53.222;6.354;2023-03-11T08:01:20;100712.00;;;2.60
38114;BMP180;23926;53.222;6.354;2023-03-11T08:03:47;100719.00;;;2.60
38114;BMP180;23926;53.222;6.354;2023-03-11T08:06:14;100724.00;;;2.70
38114;BMP180;23926;53.222;6.354;2023-03-11T08:08:40;100722.00;;;2.80
38114;BMP180;23926;53.222;6.354;2023-03-11T08:11:06;100726.00;;;2.90
38114;BMP180;23926;53.222;6.354;2023-03-11T08:13:32;100726.00;;;3.00
38114;BMP180;23926;53.222;6.354;2023-03-11T08:15:57;100730.00;;;3.10
38114;BMP180;23926;53.222;6.354;2023-03-11T08:18:23;100737.00;;;3.20
38114;BMP180;23926;53.222;6.354;2023-03-11T08:20:48;100732.00;;;3.20
38114;BMP180;23926;53.222;6.354;2023-03-11T08:23:14;100745.00;;;3.30
38114;BMP180;23926;53.222;6.354;2023-03-11T08:25:40;100748.00;;;3.30
38114;BMP180;23926;53.222;6.354;2023-03-11T08:28:06;100753.00;;;3.30
38114;BMP180;23926;53.222;6.354;2023-03-11T08:30:33;100750.00;;;3.40
38114;BMP180;23926;53.222;6.354;2023-03-11T08:32:59;100745.00;;;3.40
38114;BMP180;23926;53.222;6.354;2023-03-11T08:35:25;100755.00;;;3.60
38114;BMP180;23926;53.222;6.354;2023-03-11T08:37:51;100740.00;;;3.60
38114;BMP180;23926;53.222;6.354;2023-03-11T08:40:17;100748.00;;;3.70
38114;BMP180;23926;53.222;6.354;2023-03-11T08:42:47;100760.00;;;3.70
38114;BMP180;23926;53.222;6.354;2023-03-11T08:45:13;100757.00;;;3.70
38114;BMP180;23926;53.222;6.354;2023-03-11T08:47:39;100750.00;;;3.70
38114;BMP180;23926;53.222;6.354;2023-03-11T08:50:07;100766.00;;;3.80
38114;BMP180;23926;53.222;6.354;2023-03-11T08:52:33;100766.00;;;3.90
38114;BMP180;23926;53.222;6.354;2023-03-11T08:55:00;100773.00;;;4.00
38114;BMP180;23926;53.222;6.354;2023-03-11T08:57:25;100770.00;;;4.00
38114;BMP180;23926;53.222;6.354;2023-03-11T08:59:51;100777.00;;;4.00
38114;BMP180;23926;53.222;6.354;2023-03-11T09:02:17;100777.00;;;4.00
38114;BMP180;23926;53.222;6.354;2023-03-11T09:04:44;100775.00;;;4.10
38114;BMP180;23926;53.222;6.354;2023-03-11T09:07:11;100781.00;;;4.20
38114;BMP180;23926;53.222;6.354;2023-03-11T09:09:38;100784.00;;;4.30
38114;BMP180;23926;53.222;6.354;2023-03-11T09:12:04;100762.00;;;4.30
38114;BMP180;23926;53.222;6.354;2023-03-11T09:14:29;100770.00;;;4.30
38114;BMP180;23926;53.222;6.354;2023-03-11T09:16:54;100779.00;;;4.40
38114;BMP180;23926;53.222;6.354;2023-03-11T09:19:21;100784.00;;;4.60
38114;BMP180;23926;53.222;6.354;2023-03-11T09:21:49;100790.00;;;4.60
38114;BMP180;23926;53.222;6.354;2023-03-11T09:24:23;100782.00;;;4.70
38114;BMP180;23926;53.222;6.354;2023-03-11T09:27:08;100782.00;;;4.70
38114;BMP180;23926;53.222;6.354;2023-03-11T09:29:41;100780.00;;;4.70
38114;BMP180;23926;53.222;6.354;2023-03-11T09:32:27;100786.00;;;4.80
38114;BMP180;23926;53.222;6.354;2023-03-11T09:35:11;100783.00;;;4.80
38114;BMP180;23926;53.222;6.354;2023-03-11T09:37:51;100784.00;;;4.80
38114;BMP180;23926;53.222;6.354;2023-03-11T09:41:18;100784.00;;;4.90
38114;BMP180;23926;53.222;6.354;2023-03-11T09:44:17;100781.00;;;5.00
38114;BMP180;23926;53.222;6.354;2023-03-11T09:55:29;100778.00;;;5.10
38114;BMP180;23926;53.222;6.354;2023-03-11T09:57:56;100792.00;;;5.30
38114;BMP180;23926;53.222;6.354;2023-03-11T10:00:23;100785.00;;;5.30
38114;BMP180;23926;53.222;6.354;2023-03-11T10:02:49;100785.00;;;5.40
38114;BMP180;23926;53.222;6.354;2023-03-11T10:05:21;100786.00;;;5.40
38114;BMP180;23926;53.222;6.354;2023-03-11T10:07:54;100783.00;;;5.40
38114;BMP180;23926;53.222;6.354;2023-03-11T10:10:22;100793.00;;;5.60
38114;BMP180;23926;53.222;6.354;2023-03-11T10:13:30;100782.00;;;5.50
38114;BMP180;23926;53.222;6.354;2023-03-11T10:21:43;100801.00;;;5.40
38114;BMP180;23926;53.222;6.354;2023-03-11T10:27:00;100798.00;;;5.50
38114;BMP180;23926;53.222;6.354;2023-03-11T10:29:53;100789.00;;;5.70
38114;BMP180;23926;53.222;6.354;2023-03-11T10:32:33;100775.00;;;5.70
38114;BMP180;23926;53.222;6.354;2023-03-11T10:35:15;100808.00;;;5.70
38114;BMP180;23926;53.222;6.354;2023-03-11T10:37:47;100807.00;;;5.80
38114;BMP180;23926;53.222;6.354;2023-03-11T10:42:47;100792.00;;;5.90
38114;BMP180;23926;53.222;6.354;2023-03-11T10:45:15;100797.00;;;5.90
38114;BMP180;23926;53.222;6.354;2023-03-11T10:47:41;100793.00;;;6.00
38114;BMP180;23926;53.222;6.354;2023-03-11T10:50:13;100798.00;;;6.20
38114;BMP180;23926;53.222;6.354;2023-03-11T10:53:02;100797.00;;;6.10
38114;BMP180;23926;53.222;6.354;2023-03-11T10:55:28;100795.00;;;6.30
38114;BMP180;23926;53.222;6.354;2023-03-11T10:58:06;100797.00;;;6.30
38114;BMP180;23926;53.222;6.354;2023-03-11T11:00:35;100799.00;;;6.20
38114;BMP180;23926;53.222;6.354;2023-03-11T11:03:01;100793.00;;;6.20
38114;BMP180;23926;53.222;6.354;2023-03-11T11:05:31;100813.00;;;6.20
38114;BMP180;23926;53.222;6.354;2023-03-11T11:08:12;100801.00;;;6.10
38114;BMP180;23926;53.222;6.354;2023-03-11T11:10:55;100793.00;;;5.90
38114;BMP180;23926;53.222;6.354;2023-03-11T11:13:22;100806.00;;;6.00
38114;BMP180;23926;53.222;6.354;2023-03-11T11:15:59;100812.00;;;6.20
38114;BMP180;23926;53.222;6.354;2023-03-11T11:18:28;100810.00;;;6.20
38114;BMP180;23926;53.222;6.354;2023-03-11T11:21:04;100809.00;;;6.30
38114;BMP180;23926;53.222;6.354;2023-03-11T11:26:05;100819.00;;;6.40
38114;BMP180;23926;53.222;6.354;2023-03-11T11:28:32;100823.00;;;6.40
38114;BMP180;23926;53.222;6.354;2023-03-11T11:31:03;100819.00;;;6.50
38114;BMP180;23926;53.222;6.354;2023-03-11T11:33:39;100821.00;;;6.40
38114;BMP180;23926;53.222;6.354;2023-03-11T11:36:12;100809.00;;;6.40
38114;BMP180;23926;53.222;6.354;2023-03-11T11:38:39;100812.00;;;6.40
38114;BMP180;23926;53.222;6.354;2023-03-11T11:41:07;100817.00;;;6.40
38114;BMP180;23926;53.222;6.354;2023-03-11T11:46:39;100817.00;;;6.40
38114;BMP180;23926;53.222;6.354;2023-03-11T11:49:26;100819.00;;;6.40
38114;BMP180;23926;53.222;6.354;2023-03-11T11:52:14;100808.00;;;6.50
38114;BMP180;23926;53.222;6.354;2023-03-11T11:57:25;100808.00;;;6.70
38114;BMP180;23926;53.222;6.354;2023-03-11T11:59:51;100819.00;;;6.70
38114;BMP180;23926;53.222;6.354;2023-03-11T12:05:16;100811.00;;;6.80
38114;BMP180;23926;53.222;6.354;2023-03-11T12:08:00;100818.00;;;6.90
38114;BMP180;23926;53.222;6.354;2023-03-11T12:10:56;100820.00;;;7.00
38114;BMP180;23926;53.222;6.354;2023-03-11T12:14:16;100805.00;;;6.90
38114;BMP180;23926;53.222;6.354;2023-03-11T12:16:41;100810.00;;;6.80
38114;BMP180;23926;53.222;6.354;2023-03-11T12:21:52;100810.00;;;7.00
38114;BMP180;23926;53.222;6.354;2023-03-11T12:30:45;100802.00;;;6.80
38114;BMP180;23926;53.222;6.354;2023-03-11T12:33:34;100813.00;;;6.70
38114;BMP180;23926;53.222;6.354;2023-03-11T12:36:02;100805.00;;;6.90
38114;BMP180;23926;53.222;6.354;2023-03-11T12:38:37;100816.00;;;7.10
38114;BMP180;23926;53.222;6.354;2023-03-11T12:41:29;100816.00;;;7.00
38114;BMP180;23926;53.222;6.354;2023-03-11T12:46:18;100813.00;;;6.80
38114;BMP180;23926;53.222;6.354;2023-03-11T12:49:10;100807.00;;;6.80
38114;BMP180;23926;53.222;6.354;2023-03-11T12:51:37;100821.00;;;6.90
38114;BMP180;23926;53.222;6.354;2023-03-11T12:54:25;100825.00;;;6.90
38114;BMP180;23926;53.222;6.354;2023-03-11T13:10:44;100832.00;;;7.10
38114;BMP180;23926;53.222;6.354;2023-03-11T13:15:56;100826.00;;;7.20
38114;BMP180;23926;53.222;6.354;2023-03-11T13:18:25;100828.00;;;7.40
38114;BMP180;23926;53.222;6.354;2023-03-11T13:21:04;100838.00;;;7.40
38114;BMP180;23926;53.222;6.354;2023-03-11T13:23:37;100836.00;;;7.50
38114;BMP180;23926;53.222;6.354;2023-03-11T13:26:19;100838.00;;;7.40
38114;BMP180;23926;53.222;6.354;2023-03-11T13:31:47;100850.00;;;7.30
38114;BMP180;23926;53.222;6.354;2023-03-11T13:37:09;100835.00;;;7.40
38114;BMP180;23926;53.222;6.354;2023-03-11T13:39:52;100847.00;;;7.40
38114;BMP180;23926;53.222;6.354;2023-03-11T13:42:36;100847.00;;;7.40
38114;BMP180;23926;53.222;6.354;2023-03-11T13:45:07;100855.00;;;7.50
38114;BMP180;23926;53.222;6.354;2023-03-11T13:47:41;100838.00;;;7.40
38114;BMP180;23926;53.222;6.354;2023-03-11T13:50:20;100852.00;;;7.30
38114;BMP180;23926;53.222;6.354;2023-03-11T13:52:50;100855.00;;;7.10
38114;BMP180;23926;53.222;6.354;2023-03-11T13:55:22;100850.00;;;7.20
38114;BMP180;23926;53.222;6.354;2023-03-11T13:57:54;100857.00;;;7.20
38114;BMP180;23926;53.222;6.354;2023-03-11T14:00:24;100853.00;;;7.30
38114;BMP180;23926;53.222;6.354;2023-03-11T14:02:58;100845.00;;;7.30
38114;BMP180;23926;53.222;6.354;2023-03-11T14:05:30;100854.00;;;7.00
38114;BMP180;23926;53.222;6.354;2023-03-11T14:08:35;100855.00;;;7.00
38114;BMP180;23926;53.222;6.354;2023-03-11T14:11:11;100850.00;;;7.00
38114;BMP180;23926;53.222;6.354;2023-03-11T14:13:40;100854.00;;;7.50
38114;BMP180;23926;53.222;6.354;2023-03-11T14:16:14;100857.00;;;7.80
38114;BMP180;23926;53.222;6.354;2023-03-11T14:18:45;100853.00;;;8.00
38114;BMP180;23926;53.222;6.354;2023-03-11T14:21:19;100865.00;;;8.10
38114;BMP180;23926;53.222;6.354;2023-03-11T14:24:26;100856.00;;;7.90
38114;BMP180;23926;53.222;6.354;2023-03-11T14:27:36;100855.00;;;7.90
38114;BMP180;23926;53.222;6.354;2023-03-11T14:30:23;100858.00;;;8.00
38114;BMP180;23926;53.222;6.354;2023-03-11T14:33:17;100857.00;;;8.00
38114;BMP180;23926;53.222;6.354;2023-03-11T14:36:12;100856.00;;;7.90
38114;BMP180;23926;53.222;6.354;2023-03-11T14:38:42;100864.00;;;7.90
38114;BMP180;23926;53.222;6.354;2023-03-11T14:41:13;100858.00;;;7.70
38114;BMP180;23926;53.222;6.354;2023-03-11T14:43:43;100863.00;;;7.60
38114;BMP180;23926;53.222;6.354;2023-03-11T14:46:20;100861.00;;;7.50
38114;BMP180;23926;53.222;6.354;2023-03-11T14:48:46;100882.00;;;7.30
38114;BMP180;23926;53.222;6.354;2023-03-11T14:51:17;100880.00;;;7.00
38114;BMP180;23926;53.222;6.354;2023-03-11T14:54:06;100905.00;;;7.00
38114;BMP180;23926;53.222;6.354;2023-03-11T14:56:36;100882.00;;;6.60
38114;BMP180;23926;53.222;6.354;2023-03-11T14:59:24;100901.00;;;6.30
38114;BMP180;23926;53.222;6.354;2023-03-11T15:01:53;100897.00;;;6.00
38114;BMP180;23926;53.222;6.354;2023-03-11T15:04:30;100898.00;;;5.50
38114;BMP180;23926;53.222;6.354;2023-03-11T15:07:01;100903.00;;;5.30
38114;BMP180;23926;53.222;6.354;2023-03-11T15:09:32;100892.00;;;5.10
38114;BMP180;23926;53.222;6.354;2023-03-11T15:12:43;100900.00;;;5.00
38114;BMP180;23926;53.222;6.354;2023-03-11T15:15:57;100910.00;;;5.30
38114;BMP180;23926;53.222;6.354;2023-03-11T15:19:30;100898.00;;;5.40
38114;BMP180;23926;53.222;6.354;2023-03-11T15:22:28;100831.00;;;5.60
38114;BMP180;23926;53.222;6.354;2023-03-11T15:24:59;100828.00;;;5.90
38114;BMP180;23926;53.222;6.354;2023-03-11T15:27:36;100855.00;;;6.10
38114;BMP180;23926;53.222;6.354;2023-03-11T15:30:29;100880.00;;;6.30
38114;BMP180;23926;53.222;6.354;2023-03-11T15:33:31;100873.00;;;6.10
38114;BMP180;23926;53.222;6.354;2023-03-11T15:36:04;100881.00;;;6.20